Meadow Grove, Nebraska
Current Conditions -  °F | °C
As of 2:18 AM on Thursday 23 Oct 2014 (Local Time) from KOFK Reporting Station
Moderate Fog Moderate Fog  
Wind Chill: 51°   Ceiling: 200
Heat Index: 51°   Visibility: 0.25mi
Dew Point: 51°   Wind: 6mph
Humidity: 100%   Direction: 290°WNW
Pressure: 30.03"   Gusts: NA
Location:  42.03°N, 97.73°W
Report Text: KOFK 230718Z AUTO 29005KT 1/4SM FG VV002 11/11 A3003 RMK AO2 T01060106
Loading
Personal Weather Stations






























Interactive Weather Map
Tropical Storm Tracking
New forecast layout! Learn more

10-Day Weather Forecast

Advertisements
Track Severe Weather on mobile